Time;durP1;ratioP1;P1;durP2;ratioP2;P2;SDS_P1;SDS_P2;PMS_P1;PMS_P2;Temp;Humidity;BMP_temperature;BMP_pressure;BME280_temperature;BME280_humidity;BME280_pressure;Samples;Min_cycle;Max_cycle;Signal;HPM_P1;HPM_P2
2021/01/16 00:01:08;;;;;;;26.23;9.53;;;;;;;-11.59;73.71;99656.86;1696954;83;21677;-76
2021/01/16 00:03:36;;;;;;;19.63;8.70;;;;;;;-11.59;73.62;99659.41;1723289;83;21399;-76
2021/01/16 00:06:05;;;;;;;19.80;9.33;;;;;;;-11.64;73.73;99656.28;1698712;84;22284;-76
2021/01/16 00:08:34;;;;;;;21.40;9.37;;;;;;;-11.55;73.85;99656.20;1723167;83;21175;-75
2021/01/16 00:11:02;;;;;;;17.23;8.23;;;;;;;-11.50;73.93;99654.34;1697656;84;21181;-77
2021/01/16 00:13:33;;;;;;;18.67;8.17;;;;;;;-11.46;73.95;99651.52;1722789;83;21217;-78
2021/01/16 00:16:02;;;;;;;20.60;8.60;;;;;;;-11.42;73.82;99648.30;1677328;84;21703;-78
2021/01/16 00:18:31;;;;;;;16.23;8.25;;;;;;;-11.45;73.54;99640.56;1682625;85;21366;-77
2021/01/16 00:21:00;;;;;;;15.20;8.13;;;;;;;-11.45;73.57;99647.78;1682737;85;21228;-79
2021/01/16 00:26:41;;;;;;;18.73;8.10;;;;;;;-11.40;73.58;99654.33;1811578;79;26518;-77
2021/01/16 00:29:09;;;;;;;19.17;7.60;;;;;;;-11.48;73.25;99644.22;1782560;80;21597;-77
2021/01/16 00:31:37;;;;;;;15.13;7.73;;;;;;;-11.50;72.97;99650.91;1767900;80;21287;-79
2021/01/16 00:34:05;;;;;;;17.33;7.23;;;;;;;-11.55;72.78;99652.39;1756276;81;21180;-78
2021/01/16 00:36:34;;;;;;;15.13;6.60;;;;;;;-11.61;72.78;99657.68;1756228;81;21160;-78
2021/01/16 00:39:02;;;;;;;25.23;8.00;;;;;;;-11.64;72.87;99664.28;1756355;81;21225;-78
2021/01/16 00:41:30;;;;;;;14.97;6.63;;;;;;;-11.68;72.85;99649.73;1749708;81;21185;-77
2021/01/16 00:44:00;;;;;;;;;;;;;;;-11.72;72.96;99649.98;1728636;83;21706;-78
2021/01/16 00:46:27;;;;;;;16.03;6.77;;;;;;;-11.78;72.77;99643.36;1726094;83;20287;-78
2021/01/16 00:48:57;;;;;;;13.33;7.00;;;;;;;-11.81;72.99;99650.85;1750146;81;21634;-79
2021/01/16 00:51:25;;;;;;;15.40;7.03;;;;;;;-11.99;72.90;99630.62;1751248;81;21632;-78
2021/01/16 00:53:53;;;;;;;18.83;7.57;;;;;;;-11.82;73.20;99656.75;1751112;81;21582;-78
2021/01/16 00:56:22;;;;;;;15.57;6.40;;;;;;;-11.83;73.24;99647.38;1751042;81;22192;-75
2021/01/16 00:59:02;;;;;;;14.40;6.83;;;;;;;-11.81;72.94;99650.85;1887942;76;26652;-77
2021/01/16 01:01:39;;;;;;;13.73;5.97;;;;;;;-11.90;72.99;99646.26;1857399;77;21622;-78
2021/01/16 01:04:08;;;;;;;15.20;6.73;;;;;;;-11.90;72.79;99646.66;1860768;77;21192;-78
2021/01/16 01:06:36;;;;;;;15.07;7.33;;;;;;;-11.91;72.57;99650.02;1824304;78;21184;-77
2021/01/16 01:09:05;;;;;;;12.73;6.30;;;;;;;-11.95;72.35;99649.41;1822667;78;21178;-78
2021/01/16 01:11:36;;;;;;;16.97;7.00;;;;;;;-12.01;72.21;99649.13;1823353;78;21180;-81
2021/01/16 01:14:05;;;;;;;13.60;6.10;;;;;;;-12.09;72.08;99649.65;1823650;78;21137;-78
2021/01/16 01:16:32;;;;;;;16.20;6.70;;;;;;;-12.14;72.21;99648.58;1803554;78;21681;-80
2021/01/16 01:19:02;;;;;;;12.67;6.03;;;;;;;-12.16;72.37;99638.75;1789773;80;21186;-78
2021/01/16 01:21:30;;;;;;;17.47;6.87;;;;;;;-12.14;72.51;99656.20;1788457;80;21416;-76
2021/01/16 01:23:58;;;;;;;14.37;6.20;;;;;;;-12.12;72.74;99649.52;1788508;80;21635;-78
2021/01/16 01:26:26;;;;;;;16.00;6.73;;;;;;;-12.07;72.82;99649.73;1788401;80;21176;-76
2021/01/16 01:28:53;;;;;;;17.83;7.23;;;;;;;-12.09;72.69;99649.65;1788331;80;21833;-75
2021/01/16 01:31:21;;;;;;;14.43;7.37;;;;;;;-12.07;72.67;99651.00;1788727;80;21199;-78
2021/01/16 01:33:49;;;;;;;15.63;7.37;;;;;;;-12.09;72.51;99644.58;1788956;80;21223;-77
2021/01/16 01:38:54;;;;;;;15.03;7.27;;;;;;;-12.04;72.44;99646.05;1887173;76;27180;-80
2021/01/16 01:41:22;;;;;;;15.77;7.40;;;;;;;-12.10;72.43;99645.39;1814018;77;21123;-78
2021/01/16 01:43:50;;;;;;;16.13;7.20;;;;;;;-12.10;72.60;99649.20;1808487;79;21272;-79
2021/01/16 01:46:18;;;;;;;15.07;6.83;;;;;;;-12.08;72.44;99651.37;1808716;79;21629;-79
2021/01/16 01:48:46;;;;;;;22.80;7.13;;;;;;;-12.09;72.13;99653.45;1808336;79;21203;-78
2021/01/16 01:51:14;;;;;;;15.20;7.43;;;;;;;-12.15;72.08;99654.44;1834280;76;21166;-79
2021/01/16 01:53:42;;;;;;;17.43;7.10;;;;;;;-12.15;72.41;99659.52;1853290;76;21582;-78
2021/01/16 01:56:11;;;;;;;13.33;6.50;;;;;;;-12.14;72.48;99657.47;1853101;77;21446;-76
2021/01/16 01:58:39;;;;;;;15.57;7.03;;;;;;;-12.14;72.33;99657.47;1852950;77;21190;-77
2021/01/16 02:01:07;;;;;;;13.47;6.57;;;;;;;-12.18;72.13;99658.52;1853160;77;21186;-77
2021/01/16 02:03:35;;;;;;;18.00;7.57;;;;;;;-12.22;72.03;99657.50;1852412;77;21146;-75
2021/01/16 02:06:03;;;;;;;13.73;7.00;;;;;;;-12.22;72.31;99653.69;1852926;77;21725;-76
2021/01/16 02:08:34;;;;;;;15.43;6.47;;;;;;;-12.22;72.17;99654.96;1852564;77;22527;-75
2021/01/16 02:11:03;;;;;;;15.43;6.87;;;;;;;-12.25;71.82;99662.45;1820382;77;21177;-75
2021/01/16 02:13:31;;;;;;;17.43;6.93;;;;;;;-12.27;71.83;99661.50;1852699;76;21163;-76
2021/01/16 02:16:20;;;;;;;17.73;7.83;;;;;;;-12.29;71.83;99660.56;1852840;76;21590;-76
2021/01/16 02:18:49;;;;;;;;;;;;;;;-12.32;71.81;99662.97;1823155;77;21214;-75
2021/01/16 02:21:19;;;;;;;15.47;7.17;;;;;;;-12.37;71.63;99658.08;1852847;77;21669;-75
2021/01/16 02:24:20;;;;;;;11.93;6.03;;;;;;;-12.43;71.72;99665.40;1811901;77;21223;-75
2021/01/16 02:27:03;;;;;;;13.80;6.23;;;;;;;-12.45;71.71;99671.66;1774079;80;21171;-75
2021/01/16 02:29:31;;;;;;;16.13;7.37;;;;;;;-12.47;71.67;99678.33;1737642;80;21187;-74
2021/01/16 02:32:03;;;;;;;17.00;6.83;;;;;;;-12.50;71.71;99670.17;1774201;80;21155;-75
2021/01/16 02:34:34;;;;;;;15.50;7.20;;;;;;;-12.55;71.72;99675.44;1774086;80;21709;-75
2021/01/16 02:37:36;;;;;;;17.17;7.73;;;;;;;-12.60;71.68;99674.36;1776195;80;21453;-74
2021/01/16 02:40:18;;;;;;;16.00;7.50;;;;;;;-12.60;71.90;99670.95;1790743;80;21174;-73
2021/01/16 02:43:21;;;;;;;15.57;6.30;;;;;;;-12.63;71.80;99675.45;1790802;80;21214;-71
2021/01/16 02:46:20;;;;;;;14.13;6.90;;;;;;;-12.71;71.69;99669.16;1790845;80;21182;-73
2021/01/16 02:49:28;;;;;;;14.07;6.70;;;;;;;-12.75;71.95;99679.55;1791940;78;21379;-73
2021/01/16 02:52:09;;;;;;;16.57;7.10;;;;;;;-12.74;72.06;99674.10;1792038;80;21612;-73
2021/01/16 02:54:38;;;;;;;21.30;7.77;;;;;;;-12.73;72.30;99687.23;1792063;80;21159;-73
2021/01/16 02:57:09;;;;;;;13.23;5.90;;;;;;;-12.75;72.33;99687.56;1792076;80;21207;-73
2021/01/16 02:59:42;;;;;;;12.67;6.67;;;;;;;-12.74;72.36;99686.78;1792152;80;21238;-73
2021/01/16 03:02:14;;;;;;;14.77;7.10;;;;;;;-12.74;72.41;99686.38;1792064;78;22268;-73
2021/01/16 03:04:42;;;;;;;14.33;6.70;;;;;;;-12.77;72.40;99685.34;1791894;80;21133;-73
2021/01/16 03:07:13;;;;;;;16.43;7.57;;;;;;;-12.78;72.55;99682.34;1792032;80;21195;-73
2021/01/16 03:09:41;;;;;;;19.73;8.13;;;;;;;-12.77;72.74;99681.54;1791931;80;21603;-74
2021/01/16 03:12:10;;;;;;;16.90;7.10;;;;;;;-12.78;72.77;99678.55;1791907;79;21184;-73
2021/01/16 03:14:53;;;;;;;22.10;8.67;;;;;;;-12.77;72.62;99675.20;1797047;78;21642;-74
2021/01/16 03:17:52;;;;;;;21.33;8.97;;;;;;;-12.78;72.54;99669.67;1824639;78;21674;-75
2021/01/16 03:20:22;;;;;;;22.17;8.87;;;;;;;-12.83;72.61;99669.85;1745655;82;21145;-74
2021/01/16 03:22:50;;;;;;;21.95;8.18;;;;;;;-12.91;72.49;99670.32;1746234;82;22285;-74
2021/01/16 03:25:23;;;;;;;17.73;7.90;;;;;;;-12.93;72.61;99680.81;1781826;78;21206;-75
2021/01/16 03:27:55;;;;;;;19.83;9.17;;;;;;;-12.97;72.64;99673.84;1824606;78;21752;-73
2021/01/16 03:30:23;;;;;;;19.77;8.77;;;;;;;-13.00;72.67;99674.94;1824935;78;21185;-72
2021/01/16 03:32:52;;;;;;;20.53;7.73;;;;;;;-13.01;72.45;99674.48;1824629;78;21169;-73
2021/01/16 03:35:22;;;;;;;17.50;6.50;;;;;;;-13.05;72.46;99673.85;1824743;78;21162;-73
2021/01/16 03:37:55;;;;;;;23.13;8.70;;;;;;;-13.12;72.43;99679.41;1818777;78;21658;-73
2021/01/16 03:40:23;;;;;;;20.97;9.70;;;;;;;-13.25;72.18;99684.66;1807189;79;21341;-72
2021/01/16 03:42:52;;;;;;;23.00;8.73;;;;;;;-13.36;72.21;99679.97;1824399;77;21119;-73
2021/01/16 03:45:21;;;;;;;21.47;9.27;;;;;;;-13.44;72.01;99687.56;1851775;77;21130;-71
2021/01/16 03:47:51;;;;;;;21.73;8.30;;;;;;;-13.51;72.02;99691.84;1851628;76;21170;-72
2021/01/16 03:50:22;;;;;;;22.82;9.63;;;;;;;-13.58;72.14;99687.25;1851822;76;21815;-72
2021/01/16 03:52:49;;;;;;;21.67;8.70;;;;;;;-13.62;72.17;99692.95;1851928;77;21997;-73
2021/01/16 03:55:18;;;;;;;21.70;9.00;;;;;;;-13.66;72.21;99688.50;1819067;77;21194;-72
2021/01/16 03:57:47;;;;;;;18.37;6.63;;;;;;;-13.68;72.37;99700.25;1810417;77;21204;-72
2021/01/16 04:00:15;;;;;;;23.40;8.93;;;;;;;-13.66;72.58;99697.38;1807048;79;21176;-73
2021/01/16 04:02:44;;;;;;;13.95;6.45;;;;;;;-13.64;72.66;99704.28;1792899;77;21158;-69
2021/01/16 04:05:13;;;;;;;26.40;9.50;;;;;;;-13.58;72.46;99706.25;1852031;77;21252;-70
2021/01/16 04:07:44;;;;;;;19.02;7.95;;;;;;;-13.57;72.22;99709.24;1852169;77;21150;-71
2021/01/16 04:10:12;;;;;;;18.97;7.63;;;;;;;-13.63;71.94;99707.68;1820249;77;21142;-69
2021/01/16 04:12:40;;;;;;;17.77;7.70;;;;;;;-13.68;71.67;99704.05;1851829;76;21201;-70
2021/01/16 04:15:10;;;;;;;18.03;7.40;;;;;;;-13.72;71.65;99713.53;1835679;77;21111;-71
2021/01/16 04:17:38;;;;;;;17.45;7.47;;;;;;;-13.80;71.34;99715.63;1807112;79;27277;-70
2021/01/16 04:20:09;;;;;;;24.10;9.43;;;;;;;-13.89;71.47;99722.74;1789187;79;21825;-70
2021/01/16 04:22:40;;;;;;;23.97;9.00;;;;;;;-13.94;71.58;99719.97;1775232;80;21170;-69
2021/01/16 04:25:09;;;;;;;20.33;8.80;;;;;;;-13.96;71.74;99727.90;1775399;80;21199;-71
2021/01/16 04:27:36;;;;;;;22.43;8.43;;;;;;;-13.98;71.63;99725.67;1775192;80;21170;-71
2021/01/16 04:30:07;;;;;;;21.17;8.77;;;;;;;-14.00;71.57;99728.11;1775302;80;21282;-72
2021/01/16 04:32:35;;;;;;;22.15;7.87;;;;;;;-14.04;71.50;99726.60;1775304;80;22174;-72
2021/01/16 04:35:05;;;;;;;19.53;8.07;;;;;;;-14.08;71.18;99733.55;1775206;80;21202;-73
2021/01/16 04:37:33;;;;;;;21.60;7.22;;;;;;;-14.17;71.03;99743.66;1775445;80;21182;-73
2021/01/16 04:40:03;;;;;;;18.93;8.43;;;;;;;-14.23;70.83;99739.92;1775321;80;21187;-71
2021/01/16 04:42:31;;;;;;;25.23;9.13;;;;;;;-14.33;70.57;99741.08;1775333;80;21383;-72
2021/01/16 04:45:00;;;;;;;23.63;8.73;;;;;;;-14.44;70.36;99740.88;1775269;80;21567;-72
2021/01/16 04:47:28;;;;;;;19.13;7.93;;;;;;;-14.56;70.22;99741.46;1745080;80;21186;-71
2021/01/16 04:49:57;;;;;;;17.47;7.97;;;;;;;-14.66;70.14;99745.14;1775104;80;21151;-73
2021/01/16 04:52:27;;;;;;;23.57;8.87;;;;;;;-14.74;70.32;99747.61;1745238;80;21171;-71
2021/01/16 04:54:55;;;;;;;26.83;8.53;;;;;;;-14.81;70.51;99748.55;1775124;80;21394;-74
2021/01/16 04:57:25;;;;;;;17.13;6.77;;;;;;;-14.81;70.73;99759.05;1775024;80;21210;-72
2021/01/16 04:59:54;;;;;;;19.93;8.30;;;;;;;-14.87;70.47;99766.27;1744935;80;21666;-72
2021/01/16 05:02:23;;;;;;;18.42;7.15;;;;;;;-14.94;70.35;99771.75;1775210;80;21187;-72
2021/01/16 05:04:51;;;;;;;22.40;8.43;;;;;;;-14.98;70.46;99767.30;1775108;80;21183;-72
2021/01/16 05:07:19;;;;;;;23.77;8.83;;;;;;;-15.01;70.56;99771.39;1770215;77;22356;-71
2021/01/16 05:09:47;;;;;;;15.93;7.60;;;;;;;-15.01;70.88;99778.97;1729541;81;21708;-71
2021/01/16 05:12:47;;;;;;;23.07;7.97;;;;;;;-14.99;70.87;99781.99;1706012;81;21142;-71
2021/01/16 05:15:26;;;;;;;22.02;8.25;;;;;;;-15.03;70.63;99772.95;1780901;79;21167;-71
2021/01/16 05:18:12;;;;;;;22.47;7.93;;;;;;;-15.05;70.80;99782.09;1806829;79;21168;-72
2021/01/16 05:20:43;;;;;;;20.70;8.13;;;;;;;-15.05;70.84;99782.48;1806617;79;21199;-71
2021/01/16 05:23:17;;;;;;;19.10;7.17;;;;;;;-15.07;70.46;99782.78;1807213;78;21623;-73
2021/01/16 05:25:53;;;;;;;27.70;9.83;;;;;;;-15.19;69.78;99784.20;1806941;78;21143;-75
2021/01/16 05:28:22;;;;;;;19.27;8.50;;;;;;;-15.28;69.96;99786.17;1807123;79;21131;-72
2021/01/16 05:31:00;;;;;;;23.50;8.50;;;;;;;-15.33;70.17;99788.83;1806379;78;21127;-71
2021/01/16 05:33:39;;;;;;;20.70;8.00;;;;;;;-15.39;70.22;99798.55;1784862;77;21393;-75
2021/01/16 05:36:09;;;;;;;25.40;10.50;;;;;;;-15.47;70.04;99796.84;1791523;79;26036;-76
2021/01/16 05:38:42;;;;;;;28.45;9.98;;;;;;;-15.56;70.25;99794.62;1785353;79;22245;-76
2021/01/16 05:41:14;;;;;;;23.83;8.67;;;;;;;-15.59;70.58;99800.75;1814864;77;21209;-76
2021/01/16 05:43:43;;;;;;;27.00;9.60;;;;;;;-15.62;70.60;99805.59;1827483;78;21154;-77
2021/01/16 05:46:14;;;;;;;23.83;9.93;;;;;;;-15.66;70.61;99806.21;1827409;77;21361;-77
2021/01/16 05:48:42;;;;;;;22.42;7.85;;;;;;;-15.68;70.81;99802.31;1826982;77;21218;-76
2021/01/16 05:51:10;;;;;;;16.00;6.57;;;;;;;-15.70;70.73;99801.78;1832228;77;21201;-78
2021/01/16 05:53:38;;;;;;;25.33;9.20;;;;;;;-15.75;70.71;99795.58;1844069;77;21213;-78
2021/01/16 05:56:07;;;;;;;23.35;9.18;;;;;;;-15.79;70.82;99793.64;1826683;78;21202;-77
2021/01/16 05:58:37;;;;;;;27.30;9.30;;;;;;;-15.82;71.03;99798.47;1774766;78;21211;-77
2021/01/16 06:01:08;;;;;;;26.93;10.40;;;;;;;-15.82;71.23;99804.42;1827111;77;21177;-79
2021/01/16 06:03:37;;;;;;;18.13;7.07;;;;;;;-15.77;71.36;99812.27;1818766;78;21178;-78
2021/01/16 06:06:10;;;;;;;27.58;10.23;;;;;;;-15.74;71.34;99814.98;1850411;77;21463;-79
2021/01/16 06:08:50;;;;;;;21.50;8.03;;;;;;;-15.76;71.25;99806.44;1849354;76;21182;-77
2021/01/16 06:11:21;;;;;;;26.63;10.83;;;;;;;-15.76;71.19;99809.83;1825797;77;22490;-80
2021/01/16 06:13:55;;;;;;;17.97;6.83;;;;;;;-15.75;71.04;99824.60;1817195;78;21185;-79
2021/01/16 06:16:23;;;;;;;31.33;11.20;;;;;;;-15.76;70.68;99834.20;1808371;77;21137;-81
2021/01/16 06:18:55;;;;;;;21.93;8.97;;;;;;;-15.79;70.71;99841.59;1805053;78;21171;-79
2021/01/16 06:21:30;;;;;;;30.93;10.63;;;;;;;-15.87;70.35;99838.20;1827883;78;21222;-72
2021/01/16 06:23:59;;;;;;;28.27;11.10;;;;;;;-15.91;70.32;99847.61;1820102;77;21208;-73
2021/01/16 06:26:27;;;;;;;27.37;9.50;;;;;;;-15.93;70.51;99851.68;1819809;77;21179;-73
2021/01/16 06:29:01;;;;;;;13.03;6.07;;;;;;;-15.92;70.75;99859.72;1794575;79;21669;-72
2021/01/16 06:31:37;;;;;;;17.47;7.07;;;;;;;-15.87;71.03;99855.86;1797038;77;26849;-73
2021/01/16 06:34:09;;;;;;;28.13;11.03;;;;;;;-15.91;70.93;99863.14;1745821;81;21143;-72
2021/01/16 06:36:38;;;;;;;33.70;10.97;;;;;;;-15.93;70.77;99866.81;1767265;80;21186;-72
2021/01/16 06:39:10;;;;;;;28.77;11.22;;;;;;;-15.90;70.89;99869.52;1776653;80;21323;-74
2021/01/16 06:41:39;;;;;;;31.40;9.97;;;;;;;-15.83;70.86;99864.87;1763885;80;21199;-74
2021/01/16 06:44:15;;;;;;;30.30;10.37;;;;;;;-15.75;70.83;99864.98;1737282;81;21661;-73
2021/01/16 06:46:48;;;;;;;26.43;9.43;;;;;;;-15.65;70.65;99869.78;1766985;80;21223;-73
2021/01/16 06:49:26;;;;;;;30.30;10.97;;;;;;;-15.59;70.12;99867.65;1764598;79;21626;-74
2021/01/16 06:52:03;;;;;;;26.80;9.27;;;;;;;-15.56;69.51;99869.09;1777493;80;22237;-73
2021/01/16 06:54:36;;;;;;;27.87;10.10;;;;;;;-15.45;69.33;99878.20;1781492;80;21753;-73
2021/01/16 06:57:12;;;;;;;23.23;9.83;;;;;;;-15.31;69.07;99881.98;1778144;80;21654;-73
2021/01/16 06:59:44;;;;;;;30.23;11.40;;;;;;;-15.21;68.95;99877.95;1773614;80;21171;-74
2021/01/16 07:02:30;;;;;;;25.63;9.80;;;;;;;-15.08;68.60;99884.64;1781450;79;21361;-75
2021/01/16 07:05:06;;;;;;;30.87;10.03;;;;;;;-15.03;67.95;99877.80;1763228;80;21174;-73
2021/01/16 07:07:40;;;;;;;30.63;10.10;;;;;;;-15.02;67.16;99892.56;1710837;83;21190;-74
2021/01/16 07:10:14;;;;;;;21.03;9.03;;;;;;;-14.96;67.19;99894.61;1699986;82;21641;-74
2021/01/16 07:13:04;;;;;;;23.10;9.53;;;;;;;-14.90;66.77;99901.30;1712728;83;21351;-74
2021/01/16 07:15:34;;;;;;;26.20;9.87;;;;;;;-14.85;66.79;99903.71;1686840;84;21689;-64
2021/01/16 07:18:04;;;;;;;21.68;8.53;;;;;;;-14.69;67.16;99900.05;1702917;82;21350;-65
2021/01/16 07:20:32;;;;;;;34.27;11.40;;;;;;;-14.45;66.52;99911.08;1664135;85;21652;-65
2021/01/16 07:23:04;;;;;;;27.83;10.80;;;;;;;-14.03;66.10;99909.28;1706037;82;21227;-64
2021/01/16 07:25:32;;;;;;;23.30;9.10;;;;;;;-13.45;65.70;99907.48;1686077;82;21186;-63
2021/01/16 07:28:01;;;;;;;24.77;9.87;;;;;;;-12.83;63.39;99900.59;1723289;78;21290;-72
2021/01/16 07:30:29;;;;;;;28.07;11.20;;;;;;;-12.30;62.63;99899.52;1708441;83;21192;-75
2021/01/16 07:32:57;;;;;;;28.10;10.17;;;;;;;-11.55;62.69;99897.19;1685489;83;22113;-74
2021/01/16 07:35:25;;;;;;;25.03;10.10;;;;;;;-10.88;60.95;99903.63;1711250;83;21299;-73
2021/01/16 07:37:54;;;;;;;28.87;10.77;;;;;;;-10.37;58.63;99897.42;1714722;83;21147;-72
2021/01/16 07:40:28;;;;;;;27.52;10.03;;;;;;;-10.07;55.86;99896.94;1718392;82;22218;-73
2021/01/16 07:43:09;;;;;;;28.43;10.20;;;;;;;-9.58;56.07;99905.30;1723917;83;21174;-73
2021/01/16 07:45:41;;;;;;;26.27;10.80;;;;;;;-8.94;54.22;99899.67;1717718;81;21219;-74
2021/01/16 07:48:10;;;;;;;23.63;10.53;;;;;;;-8.37;53.45;99905.12;1721169;83;21129;-74
2021/01/16 07:50:38;;;;;;;27.20;10.60;;;;;;;-7.93;50.21;99898.52;1696741;83;21810;-73
2021/01/16 07:53:08;;;;;;;21.30;8.17;;;;;;;-7.59;48.76;99901.77;1723737;83;21454;-75
2021/01/16 07:55:41;;;;;;;27.67;10.67;;;;;;;-7.49;48.07;99901.22;1699655;83;21165;-73
2021/01/16 07:58:37;;;;;;;24.50;10.27;;;;;;;-7.53;45.83;99898.52;1722906;82;21188;-73
2021/01/16 08:01:39;;;;;;;31.03;10.43;;;;;;;-7.33;48.04;99899.16;1696395;83;21225;-72
2021/01/16 08:04:31;;;;;;;24.57;10.53;;;;;;;-6.94;46.28;99896.06;1714673;81;21180;-73
2021/01/16 08:07:13;;;;;;;29.30;10.73;;;;;;;-6.55;43.28;99898.48;1713357;83;21498;-73
2021/01/16 08:09:52;;;;;;;23.18;9.78;;;;;;;-6.21;44.60;99902.36;1717320;83;21212;-74
2021/01/16 08:12:26;;;;;;;23.77;10.47;;;;;;;-5.81;44.15;99908.51;1716365;83;21200;-75
2021/01/16 08:14:54;;;;;;;24.98;10.65;;;;;;;-5.71;41.73;99901.48;1711196;83;21957;-72
2021/01/16 08:17:26;;;;;;;16.85;9.23;;;;;;;-5.85;42.03;99907.97;1725322;81;21199;-74
2021/01/16 08:20:18;;;;;;;22.45;9.30;;;;;;;-5.60;42.59;99909.45;1724514;83;21455;-73
2021/01/16 08:22:53;;;;;;;29.65;12.58;;;;;;;-5.08;43.15;99911.97;1703703;83;21169;-73
2021/01/16 08:25:27;;;;;;;26.55;11.95;;;;;;;-4.47;40.01;99909.39;1715285;83;21163;-72
2021/01/16 08:27:58;;;;;;;26.27;11.20;;;;;;;-4.43;40.16;99900.05;1715783;81;21191;-73
2021/01/16 08:30:32;;;;;;;20.12;9.50;;;;;;;-4.33;39.41;99907.52;1758604;81;21206;-72
2021/01/16 08:33:09;;;;;;;25.45;9.50;;;;;;;-4.67;37.39;99905.55;1752152;81;22203;-74
2021/01/16 08:35:43;;;;;;;24.12;9.60;;;;;;;-5.19;37.97;99910.42;1756084;81;21660;-74
2021/01/16 08:38:21;;;;;;;20.30;9.88;;;;;;;-5.32;38.34;99906.70;1765254;81;21207;-72
2021/01/16 08:41:05;;;;;;;27.70;10.45;;;;;;;-5.31;39.18;99898.19;1753320;80;21204;-73
2021/01/16 08:43:45;;;;;;;23.92;11.63;;;;;;;-5.28;39.58;99896.09;1760558;80;21166;-72
2021/01/16 08:46:20;;;;;;;23.38;10.20;;;;;;;-5.03;39.99;99896.23;1760353;81;21819;-72
2021/01/16 08:49:07;;;;;;;23.47;9.90;;;;;;;-4.80;39.39;99895.87;1764766;79;21242;-72
2021/01/16 08:51:52;;;;;;;25.05;10.55;;;;;;;-4.53;39.94;99893.86;1728078;81;21170;-73
2021/01/16 08:54:23;;;;;;;27.73;11.90;;;;;;;-4.36;39.70;99890.75;1756541;81;21207;-73
2021/01/16 08:57:03;;;;;;;20.90;9.35;;;;;;;-4.11;38.15;99894.66;1739158;81;21219;-74
2021/01/16 08:59:32;;;;;;;24.77;9.68;;;;;;;-4.51;36.55;99895.16;1749961;79;21834;-72
2021/01/16 09:02:10;;;;;;;26.42;11.22;;;;;;;-4.87;36.13;99906.00;1742367;81;21167;-73
2021/01/16 09:04:45;;;;;;;23.30;10.38;;;;;;;-5.25;37.46;99904.28;1738322;81;21193;-74
2021/01/16 09:07:22;;;;;;;21.50;10.43;;;;;;;-5.16;36.96;99901.92;1740567;81;21207;-72
2021/01/16 09:10:00;;;;;;;21.65;9.80;;;;;;;-4.97;36.88;99913.08;1738771;82;21206;-73
2021/01/16 09:12:33;;;;;;;19.07;8.95;;;;;;;-4.87;36.95;99912.84;1760258;79;21466;-72
2021/01/16 09:15:39;;;;;;;23.98;11.15;;;;;;;-4.52;38.23;99908.86;1736444;81;21161;-76
2021/01/16 09:18:13;;;;;;;27.80;9.58;;;;;;;-4.13;37.67;99903.62;1761952;81;21195;-76
2021/01/16 09:20:48;;;;;;;23.38;9.65;;;;;;;-3.89;34.76;99898.46;1752569;81;21138;-74
2021/01/16 09:23:31;;;;;;;25.25;9.25;;;;;;;-3.88;34.46;99898.93;1707326;82;21237;-74
2021/01/16 09:26:16;;;;;;;20.85;9.83;;;;;;;-4.52;34.27;99903.30;1762221;81;21817;-76
2021/01/16 09:29:00;;;;;;;28.80;12.65;;;;;;;-4.66;35.23;99898.30;1761799;81;21162;-73
2021/01/16 09:31:41;;;;;;;23.85;9.98;;;;;;;-4.41;36.78;99900.09;1732382;82;21218;-74
2021/01/16 09:34:17;;;;;;;24.40;10.53;;;;;;;-4.89;36.53;99903.81;1735295;82;21190;-74
2021/01/16 09:36:55;;;;;;;25.55;10.40;;;;;;;-5.61;35.15;99907.70;1706396;83;21193;-73
2021/01/16 09:39:28;;;;;;;22.80;9.98;;;;;;;-6.33;36.48;99915.71;1712594;83;22235;-73
2021/01/16 09:42:02;;;;;;;23.45;10.70;;;;;;;-6.13;37.79;99913.70;1706485;83;21564;-74
2021/01/16 09:44:45;;;;;;;27.02;10.32;;;;;;;-5.79;38.46;99903.87;1686356;83;21217;-73
2021/01/16 09:47:31;;;;;;;32.98;12.23;;;;;;;-5.73;35.99;99901.47;1693541;83;21178;-73
2021/01/16 09:50:18;;;;;;;22.43;10.10;;;;;;;-5.77;37.07;99904.78;1831835;77;23318;-68
2021/01/16 09:52:52;;;;;;;19.80;9.07;;;;;;;-5.90;38.20;99899.73;1803663;78;21142;-67
2021/01/16 09:55:31;;;;;;;20.23;9.20;;;;;;;-6.18;36.37;99903.33;1792886;78;21344;-66
2021/01/16 09:57:56;;;;;;;22.17;9.80;;;;;;;-6.85;37.45;99915.54;1794646;78;21191;-67
2021/01/16 10:00:33;;;;;;;20.50;9.20;;;;;;;-7.70;37.68;99918.45;1798433;78;21201;-67
2021/01/16 10:03:06;;;;;;;21.37;9.10;;;;;;;-8.40;39.19;99918.20;1797454;78;21186;-67
2021/01/16 10:05:38;;;;;;;23.43;8.83;;;;;;;-8.98;40.53;99930.98;1799128;78;21611;-67
2021/01/16 10:08:07;;;;;;;22.43;9.87;;;;;;;-9.35;41.65;99925.33;1802388;78;22396;-66
2021/01/16 10:10:45;;;;;;;22.97;9.80;;;;;;;-9.69;41.92;99924.38;1748271;80;21199;-67
2021/01/16 10:13:16;;;;;;;24.50;9.13;;;;;;;-9.96;42.87;99924.11;1759146;81;21607;-66
2021/01/16 10:15:49;;;;;;;16.73;7.73;;;;;;;-10.28;43.50;99921.52;1683805;81;21191;-73
2021/01/16 10:18:21;;;;;;;27.53;8.90;;;;;;;-10.63;44.54;99929.77;1619905;86;21458;-75
2021/01/16 10:21:10;;;;;;;25.80;9.53;;;;;;;-10.83;45.43;99928.49;1629227;87;21368;-74
2021/01/16 10:23:43;;;;;;;25.77;10.50;;;;;;;-10.82;45.11;99926.41;1628189;87;21929;-74
2021/01/16 10:26:17;;;;;;;24.30;9.93;;;;;;;-10.55;45.87;99920.81;1650329;85;21214;-74
2021/01/16 10:28:57;;;;;;;27.17;10.63;;;;;;;-10.08;45.58;99912.16;1598700;88;21714;-72
2021/01/16 10:31:27;;;;;;;24.50;9.65;;;;;;;-9.93;44.75;99906.43;1629786;84;21241;-64
2021/01/16 10:34:07;;;;;;;;;;;;;;;-9.78;44.47;99911.27;1638420;86;22322;-65
2021/01/16 10:36:35;;;;;;;20.30;8.73;;;;;;;-9.13;44.64;99909.59;1658826;86;20231;-66
2021/01/16 10:39:13;;;;;;;25.07;8.70;;;;;;;-8.18;42.79;99902.78;1661545;86;21203;-66
2021/01/16 10:41:43;;;;;;;23.73;10.40;;;;;;;-7.23;42.20;99899.47;1647464;86;21218;-65
2021/01/16 10:44:14;;;;;;;26.33;11.15;;;;;;;-6.44;40.07;99896.61;1661393;85;21187;-66
2021/01/16 10:49:28;;;;;;;24.30;11.10;;;;;;;-5.24;39.72;99890.63;1837172;76;38224;-65
2021/01/16 10:52:04;;;;;;;18.90;9.73;;;;;;;-4.53;37.30;99879.73;1826302;78;21189;-65
2021/01/16 10:54:32;;;;;;;20.37;9.98;;;;;;;-4.22;36.15;99873.88;1824574;78;21354;-64
2021/01/16 10:57:06;;;;;;;24.40;9.40;;;;;;;-4.48;35.39;99883.67;1829650;77;21230;-65
2021/01/16 10:59:37;;;;;;;25.90;11.65;;;;;;;-4.70;35.20;99890.07;1776142;80;21178;-65
2021/01/16 11:02:12;;;;;;;20.55;9.08;;;;;;;-4.95;36.50;99893.83;1721669;81;21460;-65
2021/01/16 11:04:42;;;;;;;23.65;10.40;;;;;;;-4.87;36.54;99894.87;1750070;78;21234;-70
2021/01/16 11:07:11;;;;;;;21.20;8.55;;;;;;;-4.54;36.56;99880.97;1731565;81;21806;-70
2021/01/16 11:09:42;;;;;;;24.25;10.25;;;;;;;-4.09;36.28;99879.70;1730789;82;21234;-70
2021/01/16 11:12:10;;;;;;;;;;;;;;;-3.38;35.40;99882.16;1729998;82;21216;-71
2021/01/16 11:14:41;;;;;;;21.07;8.80;;;;;;;-3.08;34.05;99882.14;1730575;82;20223;-69
2021/01/16 11:17:11;;;;;;;20.12;8.73;;;;;;;-3.35;32.49;99884.77;1729957;82;21143;-70
2021/01/16 11:19:43;;;;;;;20.02;9.75;;;;;;;-3.71;32.80;99884.63;1761870;78;21454;-73
2021/01/16 11:22:13;;;;;;;20.92;8.78;;;;;;;-3.63;33.92;99884.34;1803995;78;21189;-72
2021/01/16 11:25:07;;;;;;;24.40;9.55;;;;;;;-3.74;32.61;99879.44;1810205;78;21154;-73
2021/01/16 11:27:35;;;;;;;18.55;9.70;;;;;;;-3.84;33.80;99878.85;1803385;79;21186;-75
2021/01/16 11:30:09;;;;;;;26.68;9.23;;;;;;;-3.98;33.91;99879.00;1800730;79;21186;-73
2021/01/16 11:32:37;;;;;;;24.37;11.00;;;;;;;-4.66;33.89;99881.59;1801317;79;22261;-73
2021/01/16 11:35:15;;;;;;;20.60;8.33;;;;;;;-5.29;34.38;99887.53;1807934;79;21234;-74
2021/01/16 11:37:56;;;;;;;21.17;9.05;;;;;;;-6.01;35.49;99879.39;1797695;79;21212;-75
2021/01/16 11:40:36;;;;;;;19.60;8.57;;;;;;;-7.01;36.41;99881.80;1802759;79;21142;-74
2021/01/16 11:43:09;;;;;;;26.93;10.03;;;;;;;-7.77;37.63;99890.53;1802859;79;21138;-72
2021/01/16 11:45:38;;;;;;;22.20;9.23;;;;;;;-8.62;39.21;99901.27;1803485;79;21345;-79
2021/01/16 11:48:07;;;;;;;22.90;9.27;;;;;;;-9.26;40.50;99899.73;1784719;79;21182;-78
2021/01/16 11:50:38;;;;;;;29.07;10.10;;;;;;;-9.46;41.40;99896.39;1779321;79;21231;-77
2021/01/16 11:53:07;;;;;;;;;;;;;;;-9.11;42.50;99892.64;1768735;79;21758;-77
2021/01/16 11:55:35;;;;;;;20.93;8.47;;;;;;;-8.42;42.72;99890.05;1798068;78;20316;-80